Terminal Aerodrome Forecast
Issued by NWS St Louis, MO

Home | Current Version | Previous Version | Text Only | Print | Product List | Glossary On
Versions: 1 2 3 4 5 6 7 8 9 10 11 12 13 14 15 16 17 18 19
307
FTUS43 KLSX 101605 AAC
TAFCOU
TAF AMD
KCOU 101605Z 1016/1112 22005KT 2SM -SN BR OVC025
      TEMPO 1016/1019 1SM -SN OVC012
     FM102200 13008KT P6SM BKN150
     FM110600 06010KT P6SM BKN250=

USA.gov is the U.S. government's official web portal to all federal, state and local government web resources and services.